Last 48 Hours

Top Stn/Summit - 11,053ft

15 Minute Data | America/Los_Angeles
as of 9/3/26 5:55 AM PDT
Date & Time Temp (°F) WindChill (°F) RH (%) Dew Pt (°F) Wet Bulb (°F) Wind Dir (°) Wind Spd (mph) Wind Gust (mph) Wind Gst Dir (°) Daily Min Temp (°F) Daily Max Temp (°F) Daily Max Wind (mph)
9/3/26 - 0545 29.7 12.4 74 22.4 27.2 SW | 228 36.7 46.2 SW | 226 29.6 32.1 56.9
9/3/26 - 0530 29.7 12.4 72 21.9 27.1 SW | 226 38.2 45.4 SW | 226 29.6 32.1 56.9
9/3/26 - 0515 29.7 12.1 71 21.4 26.9 SW | 227 39.1 47.4 SW | 227 29.6 32.1 56.9
9/3/26 - 0500 29.9 12.2 69 20.9 26.9 SW | 226 39.6 48.3 SW | 227 29.8 32.1 56.9
9/3/26 - 0445 30.2 12.5 67 20.6 27.0 SW | 226 40.6 48.9 SW | 225 30.0 32.1 56.9
9/3/26 - 0430 30.4 12.7 65 19.9 27.0 N | 359 42.3 50.6 N | 0 30.3 32.1 56.9
9/3/26 - 0415 30.7 13.2 60 18.7 26.8 N | 357 42.0 49.8 N | 0 30.5 32.1 56.9
9/3/26 - 0400 31.0 13.3 58 18.0 26.8 N | 2 43.4 52.4 N | 0 30.9 32.1 56.9
9/3/26 - 0345 31.3 13.4 57 17.7 27.0 N | 0 46.0 54.4 N | 0 31.1 32.1 56.9
9/3/26 - 0330 31.5 13.5 56 17.4 27.0 N | 2 46.3 55.1 N | 0 31.4 32.1 56.9
9/3/26 - 0315 31.6 13.6 57 18.0 27.3 N | 6 47.8 56.3 N | 0 31.5 32.1 56.9
9/3/26 - 0300 31.5 13.4 61 19.8 27.6 N | 4 47.7 56.9 NNE | 16 31.5 32.1 56.9
9/3/26 - 0245 31.6 13.5 64 20.8 27.9 N | 2 47.0 56.6 N | 0 31.5 32.1 56.6
9/3/26 - 0230 31.8 13.9 62 20.4 28.0 N | 5 46.1 56.2 N | 0 31.5 32.1 56.2
9/3/26 - 0215 31.9 14.4 60 19.8 27.9 N | 10 44.4 53.5 N | 0 31.5 32.1 53.5
9/3/26 - 0200 31.9 14.6 63 20.6 28.1 NNW | 333 42.2 51.7 N | 0 31.5 32.1 51.7
9/3/26 - 0145 31.8 14.8 66 21.6 28.3 SW | 236 40.1 50.2 SW | 235 31.5 32.0 50.9
9/3/26 - 0130 31.7 14.4 70 23.0 28.6 N | 4 41.3 50.8 N | 0 31.5 31.8 50.9
9/3/26 - 0115 31.6 14.3 73 23.9 28.9 N | 10 41.7 50.9 N | 0 31.5 31.7 50.9
9/3/26 - 0100 31.5 14.0 77 25.0 29.1 N | 360 42.5 52.4 N | 0 25.8 40.3 57.7
9/3/26 - 0045 31.6 14.6 78 25.4 29.3 N | 1 40.2 48.1 N | 0 25.8 40.3 57.7
9/3/26 - 0030 31.9 15.7 76 25.1 29.4 SW | 228 34.6 44.0 SW | 219 25.8 40.3 57.7
9/3/26 - 0015 32.1 17.2 75 25.0 29.5 SW | 232 28.5 36.8 SW | 232 25.8 40.3 57.7
9/3/26 - 0000 32.0 18.0 75 25.0 29.5 SW | 232 25.2 31.7 SW | 232 25.8 40.3 57.7
9/2/26 - 2345 31.9 18.3 76 25.2 29.5 SW | 231 23.4 29.4 SW | 231 25.8 40.3 57.7
9/2/26 - 2330 31.6 18.0 80 26.3 29.6 SW | 231 23.4 28.8 SW | 231 25.8 40.3 57.7
9/2/26 - 2315 31.6 18.1 83 27.0 29.9 SW | 231 22.2 28.1 SW | 231 25.8 40.3 57.7
9/2/26 - 2300 31.6 18.3 84 27.4 30.0 SW | 230 21.8 27.6 SW | 230 25.8 40.3 57.7
9/2/26 - 2245 31.5 18.1 85 27.5 29.9 SW | 230 22.0 27.2 SW | 230 25.8 40.3 57.7
9/2/26 - 2230 31.5 18.1 85 27.4 29.9 SW | 229 22.1 26.9 SW | 229 25.8 40.3 57.7
9/2/26 - 2215 31.3 17.9 86 27.8 29.9 SW | 228 21.7 27.1 SW | 228 25.8 40.3 57.7
9/2/26 - 2200 31.1 17.5 88 27.9 29.9 SW | 227 22.5 28.0 SW | 227 25.8 40.3 57.7
9/2/26 - 2145 31.3 17.4 88 28.2 30.1 SW | 226 23.5 29.4 SW | 225 25.8 40.3 57.7
9/2/26 - 2130 31.1 17.0 90 28.6 30.1 SW | 225 24.2 30.1 SW | 224 25.8 40.3 57.7
9/2/26 - 2115 31.0 16.8 94 29.4 30.3 SW | 224 23.5 31.2 SW | 224 25.8 40.3 57.7
9/2/26 - 2100 31.1 18.2 96 30.0 30.6 SW | 224 19.2 25.3 SW | 224 25.8 40.3 57.7
9/2/26 - 2045 31.0 17.7 96 30.0 30.6 SW | 225 20.4 27.4 SW | 220 25.8 40.3 57.7
9/2/26 - 2030 31.6 18.0 92 29.6 30.8 SW | 222 22.6 29.4 SW | 222 25.8 40.3 57.7
9/2/26 - 2015 31.8 17.8 90 29.4 30.8 SW | 225 23.6 32.2 SW | 226 25.8 40.3 57.7
9/2/26 - 2000 32.3 17.8 89 29.5 31.2 SW | 226 27.2 34.7 SW | 228 25.8 40.3 57.7
9/2/26 - 1945 32.8 18.2 86 29.2 31.4 SW | 226 28.8 36.0 SW | 226 25.8 40.3 57.7
9/2/26 - 1930 33.5 19.1 83 28.9 31.7 SW | 229 29.0 37.2 SW | 231 25.8 40.3 57.7
9/2/26 - 1915 34.5 20.2 77 28.1 32.0 SW | 228 30.1 38.3 SW | 235 25.8 40.3 57.7
9/2/26 - 1900 35.0 20.8 73 27.2 32.1 SW | 227 30.8 39.0 SW | 231 25.8 40.3 57.7
9/2/26 - 1845 36.1 22.3 68 26.6 32.5 SW | 227 30.9 39.9 SW | 218 25.8 40.3 57.7
9/2/26 - 1830 36.6 23.4 65 26.1 32.7 SW | 224 28.3 37.6 SW | 224 25.8 40.3 57.7
9/2/26 - 1815 36.9 23.4 64 26.0 32.8 SW | 227 30.8 39.2 SW | 234 25.8 40.3 57.7
9/2/26 - 1800 37.5 24.6 63 26.0 33.2 SW | 222 27.0 37.2 WSW | 238 25.8 40.3 57.7
9/2/26 - 1745 38.1 25.5 61 25.8 33.5 SW | 231 27.1 37.3 SW | 232 25.8 40.3 57.7
9/2/26 - 1730 38.4 25.8 61 26.1 33.7 SW | 217 28.5 37.0 SW | 217 25.8 40.3 57.7
9/2/26 - 1715 38.8 26.1 59 25.5 33.8 SW | 226 29.2 38.8 WSW | 238 25.8 40.3 57.7
9/2/26 - 1700 39.1 26.4 57 25.3 33.9 SW | 225 28.8 41.5 SW | 216 25.8 40.3 57.7
9/2/26 - 1645 39.5 26.6 56 25.2 34.1 SW | 226 31.0 43.6 SW | 222 25.8 40.3 57.7
9/2/26 - 1630 39.3 27.0 55 24.7 33.8 SW | 228 26.1 39.5 SW | 219 25.8 40.3 57.7
9/2/26 - 1615 39.5 27.2 56 25.0 34.0 SW | 226 26.5 40.1 SW | 227 25.8 40.3 57.7
9/2/26 - 1600 39.7 28.2 58 26.1 34.5 SW | 232 20.9 37.2 SW | 225 25.8 40.3 57.7
9/2/26 - 1545 39.4 27.3 61 27.0 34.6 SW | 230 24.6 38.6 SW | 231 25.8 40.3 57.7
9/2/26 - 1530 39.7 27.3 62 27.6 35.0 SW | 222 26.4 43.1 SW | 227 25.8 40.3 57.7
9/2/26 - 1515 39.6 26.9 62 27.8 35.0 SW | 216 29.0 43.1 S | 191 25.8 40.3 57.7
9/2/26 - 1500 39.6 26.6 61 27.3 34.8 SW | 228 31.0 44.8 SW | 228 25.8 40.3 57.7
9/2/26 - 1445 39.9 26.9 62 27.7 35.1 SW | 223 30.6 46.8 SW | 216 25.8 40.3 57.7
9/2/26 - 1430 39.7 26.8 62 27.6 35.0 SW | 222 30.0 45.2 SW | 223 25.8 40.3 57.7
9/2/26 - 1415 39.2 26.2 62 27.4 34.6 SW | 224 29.2 44.7 SW | 235 25.8 39.8 57.7
9/2/26 - 1400 39.3 26.4 64 28.0 34.9 SW | 222 30.0 44.1 SSW | 200 25.8 39.8 57.7
9/2/26 - 1345 38.7 25.3 64 27.7 34.5 SW | 223 29.9 47.9 SW | 217 25.8 39.4 57.7
9/2/26 - 1330 38.9 25.8 63 27.4 34.5 SW | 221 32.0 43.1 SSW | 211 25.8 39.4 57.7
9/2/26 - 1315 38.8 25.4 63 27.1 34.3 SW | 221 31.7 46.0 SW | 220 25.8 39.4 57.7
9/2/26 - 1300 38.9 26.1 62 26.9 34.3 SW | 225 26.0 44.6 SSW | 199 25.8 39.4 57.7
9/2/26 - 1245 38.4 25.4 62 26.7 33.9 SW | 221 26.9 44.0 SW | 226 25.8 39.4 57.7
9/2/26 - 1230 38.2 25.5 62 26.5 33.8 SW | 224 26.3 40.9 SW | 225 25.8 38.8 57.7
9/2/26 - 1215 38.1 24.7 62 26.3 33.6 SW | 228 29.6 44.8 SW | 218 25.8 38.8 57.7
9/2/26 - 1200 38.2 24.6 62 26.1 33.6 SW | 229 29.1 47.6 SSW | 207 25.8 38.8 57.7
9/2/26 - 1145 38.3 25.6 61 26.0 33.7 SW | 230 26.1 40.4 SW | 233 25.8 38.8 57.7
9/2/26 - 1130 37.3 24.2 61 25.2 32.8 SW | 227 27.0 39.4 SW | 214 25.8 38.4 57.7
9/2/26 - 1115 36.6 23.6 62 24.8 32.3 SW | 230 25.2 38.0 SW | 227 25.8 37.0 57.7
9/2/26 - 1100 36.3 23.3 63 24.8 32.1 SW | 230 25.5 35.4 SW | 226 25.8 36.4 57.7
9/2/26 - 1045 35.9 22.7 63 24.6 31.8 SW | 230 26.0 35.4 SW | 225 25.8 36.2 57.7
9/2/26 - 1030 35.0 21.0 65 24.2 31.1 SW | 227 27.6 38.5 SW | 222 25.8 35.6 57.7
9/2/26 - 1015 33.7 19.0 66 23.6 30.1 SW | 222 30.4 39.5 SW | 214 25.8 34.3 57.7
9/2/26 - 1000 33.2 18.6 66 23.2 29.7 SW | 221 28.6 38.0 SW | 222 25.8 34.0 57.7
9/2/26 - 0945 31.7 17.1 68 22.2 28.5 SW | 220 27.1 34.4 SW | 221 25.8 32.5 57.7
9/2/26 - 0930 30.9 15.9 68 21.6 27.7 SW | 220 27.2 34.7 SW | 219 25.8 31.1 57.7
9/2/26 - 0915 30.1 14.3 68 21.0 27.0 SW | 222 29.3 37.8 SW | 220 25.8 30.5 57.7
9/2/26 - 0900 29.0 13.0 69 20.1 26.1 SW | 225 28.3 37.6 SW | 224 25.8 29.9 57.7
9/2/26 - 0845 29.1 13.1 68 19.9 26.1 SW | 226 29.4 36.4 SW | 222 25.8 29.9 57.7
9/2/26 - 0830 29.5 13.4 67 19.8 26.3 SW | 227 29.6 38.4 SW | 228 25.8 29.9 57.7
9/2/26 - 0815 28.8 12.0 68 19.4 25.7 SW | 225 31.1 41.1 SW | 221 25.8 29.7 57.7
9/2/26 - 0800 28.6 11.4 68 19.4 25.6 SW | 225 33.3 42.1 SW | 229 25.8 29.7 57.7
9/2/26 - 0745 27.5 9.5 71 19.2 24.8 SW | 226 34.7 45.7 SW | 227 25.8 29.7 57.7
9/2/26 - 0730 27.2 9.3 72 19.5 24.7 SW | 226 34.6 43.4 SW | 224 25.8 29.7 57.7
9/2/26 - 0715 26.9 8.7 74 19.6 24.5 SW | 226 36.2 44.4 SW | 225 25.8 29.7 57.7
9/2/26 - 0700 26.7 8.5 74 19.7 24.4 SW | 226 34.5 44.8 SW | 230 25.8 29.7 57.7
9/2/26 - 0645 26.1 7.7 79 20.4 24.2 SW | 225 34.3 44.8 SW | 231 25.8 29.7 57.7
9/2/26 - 0630 26.0 7.2 81 20.9 24.2 SW | 225 36.0 46.1 SW | 224 25.8 29.7 57.7
9/2/26 - 0615 26.2 7.2 80 20.9 24.4 SW | 225 37.9 47.6 SW | 214 26.0 29.7 57.7
9/2/26 - 0600 26.3 7.3 80 21.0 24.5 SW | 223 38.4 47.4 SW | 228 26.0 29.7 57.7
9/2/26 - 0545 26.2 7.0 83 21.7 24.6 SW | 220 39.1 49.4 ENE | 60 26.0 29.7 57.7
9/2/26 - 0530 26.5 7.4 85 22.5 25.1 SW | 225 38.4 49.9 SW | 229 26.3 29.7 57.7
9/2/26 - 0515 26.6 7.6 88 23.4 25.4 SW | 222 39.3 49.2 SW | 231 26.5 29.7 57.7
9/2/26 - 0500 26.8 7.7 88 23.7 25.6 SW | 222 39.1 50.5 N | 0 26.5 29.7 57.7
9/2/26 - 0445 26.8 7.6 88 23.7 25.7 SW | 223 40.5 51.7 E | 89 26.8 29.7 57.7
9/2/26 - 0430 26.9 7.7 87 23.7 25.7 SW | 227 40.9 52.5 SW | 226 26.8 29.7 57.7
9/2/26 - 0415 27.5 8.6 82 22.9 25.9 SW | 223 40.6 50.9 N | 0 27.1 29.7 57.7
9/2/26 - 0400 27.9 8.9 79 22.2 25.9 WSW | 256 40.5 53.3 N | 0 27.5 29.7 57.7
9/2/26 - 0345 28.2 9.5 77 21.8 26.0 WSW | 239 40.2 51.9 NE | 47 27.7 29.7 57.7
9/2/26 - 0330 28.0 9.3 79 22.3 26.0 SSW | 213 40.1 51.1 ENE | 60 27.7 29.7 57.7
9/2/26 - 0315 28.3 10.1 79 22.5 26.3 SW | 224 37.5 48.8 SW | 225 27.8 29.7 57.7
9/2/26 - 0300 28.3 10.0 79 22.6 26.3 SW | 223 37.5 50.8 ESE | 119 28.2 29.7 57.7
9/2/26 - 0245 28.6 10.4 77 22.3 26.4 WSW | 249 38.3 49.2 N | 0 28.3 29.7 57.7
9/2/26 - 0230 29.0 10.8 74 21.6 26.5 SW | 233 39.2 52.2 NNE | 16 28.8 29.7 57.7
9/2/26 - 0215 29.2 10.5 70 20.7 26.4 NNE | 22 42.8 56.6 N | 1 29.0 29.7 57.7
9/2/26 - 0200 29.2 10.3 70 20.6 26.3 NNE | 23 44.7 56.2 NNE | 25 29.0 29.7 57.7
9/2/26 - 0145 29.4 10.6 68 20.0 26.4 NNE | 25 44.8 57.7 ENE | 68 29.1 29.7 57.7
9/2/26 - 0130 29.4 10.6 68 20.2 26.4 NNE | 22 45.1 56.8 N | 0 29.1 29.7 57.2
9/2/26 - 0115 29.3 10.4 69 20.4 26.4 NNE | 17 45.4 57.2 E | 88 29.1 29.5 57.2
9/2/26 - 0100 29.4 10.6 67 19.9 26.3 NNE | 14 44.7 56.4 N | 0 28.9 43.8 56.4
9/2/26 - 0045 29.1 10.3 69 20.2 26.2 NNW | 339 43.9 55.5 N | 0 28.9 43.8 55.5
9/2/26 - 0030 29.2 10.6 69 20.2 26.2 N | 3 43.0 53.2 N | 7 28.9 43.8 54.0
9/2/26 - 0015 29.6 11.2 67 20.0 26.4 WNW | 282 42.1 53.7 N | 3 29.4 43.8 54.0
9/2/26 - 0000 29.6 11.2 69 20.6 26.6 WNW | 290 42.2 54.0 NNE | 32 29.4 43.8 54.0
9/1/26 - 2345 29.7 11.7 70 21.0 26.8 WSW | 258 40.6 51.7 E | 88 29.5 43.8 53.9
9/1/26 - 2330 29.8 11.9 71 21.7 27.1 WSW | 253 39.7 51.0 NNE | 28 29.5 43.8 53.9
9/1/26 - 2315 30.2 12.3 73 22.6 27.6 SW | 233 40.5 53.3 N | 5 29.7 43.8 53.9
9/1/26 - 2300 30.5 12.6 73 22.8 27.8 NNW | 346 41.6 53.3 NNE | 30 29.9 43.8 53.9
9/1/26 - 2245 30.5 12.5 76 23.8 28.1 SW | 231 41.7 53.9 N | 0 29.9 43.8 53.9
9/1/26 - 2230 30.2 12.3 79 24.6 28.2 WSW | 248 40.9 51.9 SW | 216 29.9 43.8 53.3
9/1/26 - 2215 30.3 12.4 82 25.4 28.5 SW | 224 41.7 52.1 SSW | 205 29.9 43.8 53.3
9/1/26 - 2200 30.1 12.0 86 26.4 28.7 SW | 228 41.7 52.5 SSE | 157 29.9 43.8 53.3
9/1/26 - 2145 30.2 12.2 87 26.9 28.9 SW | 234 42.1 52.5 NNE | 31 29.9 43.8 53.3
9/1/26 - 2130 30.4 12.6 88 27.4 29.2 WSW | 249 41.2 53.0 N | 0 30.1 43.8 53.3
9/1/26 - 2115 30.6 12.6 91 28.2 29.6 WNW | 294 42.4 53.3 N | 0 30.1 43.8 53.3
9/1/26 - 2100 31.0 13.4 91 28.6 30.0 WSW | 256 40.4 51.5 ESE | 110 30.6 43.8 53.0
9/1/26 - 2045 30.9 13.2 92 29.0 30.1 SW | 231 40.8 53.0 N | 0 30.6 43.8 53.0
9/1/26 - 2030 30.9 13.4 92 29.0 30.1 WSW | 252 41.0 51.9 N | 0 30.6 43.8 52.5
9/1/26 - 2015 31.5 14.1 90 28.9 30.5 WSW | 239 41.0 52.4 N | 0 30.9 43.8 52.5
9/1/26 - 2000 31.8 14.5 89 28.8 30.6 WSW | 255 41.2 52.5 NNE | 25 30.9 43.8 52.5
9/1/26 - 1945 32.5 15.6 84 28.3 30.9 SW | 225 40.3 52.3 SW | 222 30.9 43.8 52.3
9/1/26 - 1930 33.4 17.0 81 28.2 31.4 SW | 226 38.0 51.0 SW | 226 30.9 43.8 51.1
9/1/26 - 1915 34.5 18.6 77 28.0 32.0 SW | 225 38.7 50.6 SW | 230 30.9 43.8 51.1
9/1/26 - 1900 35.4 20.0 72 27.2 32.3 SW | 224 37.8 49.8 SSW | 213 30.9 43.8 51.1
9/1/26 - 1845 36.8 21.7 67 27.0 33.1 SW | 222 39.9 51.1 SW | 214 30.9 43.8 51.1
9/1/26 - 1830 37.4 23.0 65 26.9 33.4 SW | 224 35.8 50.3 SW | 224 30.9 43.8 50.3
9/1/26 - 1815 38.1 24.1 64 27.1 33.9 SW | 226 36.0 47.1 SW | 214 30.9 43.8 48.3
9/1/26 - 1800 38.7 25.0 63 27.3 34.3 SW | 225 35.6 46.3 SW | 217 30.9 43.8 48.3
9/1/26 - 1745 39.1 25.4 61 26.9 34.4 SW | 222 36.4 48.3 SW | 227 30.9 43.8 48.3
9/1/26 - 1730 39.7 26.7 61 27.2 34.9 SW | 222 31.2 47.4 SW | 226 30.9 43.8 47.4
9/1/26 - 1715 41.0 28.6 57 27.0 35.5 SW | 229 30.5 45.1 SW | 219 30.9 43.8 45.8
9/1/26 - 1700 41.1 28.9 56 26.7 35.5 SW | 229 30.1 44.2 SW | 231 30.9 43.8 45.8
9/1/26 - 1645 41.8 29.8 54 26.5 35.8 SW | 225 28.4 45.8 SW | 220 30.9 43.8 45.8
9/1/26 - 1630 42.0 30.4 53 26.2 35.9 SW | 227 27.2 43.1 SW | 235 30.9 43.8 45.6
9/1/26 - 1615 42.2 30.4 51 25.6 35.8 SW | 225 29.8 44.1 SW | 232 30.9 43.8 45.6
9/1/26 - 1600 42.6 31.0 51 25.8 36.1 SW | 230 29.2 44.2 SW | 235 30.9 43.8 45.6
9/1/26 - 1545 43.1 31.5 51 26.1 36.4 SW | 227 30.6 45.2 SW | 221 30.9 43.8 45.6
9/1/26 - 1530 43.0 31.4 51 26.3 36.5 SW | 228 31.3 45.0 SW | 229 30.9 43.8 45.6
9/1/26 - 1515 42.6 30.9 51 25.7 36.1 SW | 227 30.9 44.1 SW | 229 30.9 43.8 45.6
9/1/26 - 1500 42.7 31.6 51 25.7 36.1 SW | 226 26.8 40.7 SW | 229 30.9 43.8 45.6
9/1/26 - 1445 43.1 32.1 50 26.0 36.4 SW | 231 25.9 41.5 WSW | 238 30.9 43.8 45.6
9/1/26 - 1430 43.3 32.3 50 25.8 36.5 SW | 231 24.1 45.6 SW | 226 30.9 43.8 45.6
9/1/26 - 1415 43.1 33.1 50 25.8 36.3 SW | 233 19.8 34.4 SW | 226 30.9 43.8 45.4
9/1/26 - 1400 43.1 32.9 50 25.5 36.3 SW | 232 21.2 36.0 SW | 231 30.9 43.8 45.4
9/1/26 - 1345 43.4 32.7 49 25.6 36.5 SW | 231 25.3 40.3 SW | 235 30.9 43.8 45.4
9/1/26 - 1330 43.4 32.3 49 25.6 36.5 SW | 229 27.1 44.0 SW | 217 30.9 43.8 45.4
9/1/26 - 1315 43.3 32.1 51 26.5 36.7 SW | 228 29.0 43.0 SW | 214 30.9 43.7 45.4
9/1/26 - 1300 43.1 32.0 54 27.6 36.9 SW | 223 28.0 42.0 SW | 221 30.9 43.5 45.4
9/1/26 - 1245 42.9 31.8 53 27.0 36.6 SW | 220 27.0 39.8 SSW | 213 30.9 43.2 45.4
9/1/26 - 1230 42.6 31.9 50 25.5 36.0 SW | 223 25.0 37.0 SW | 216 30.9 43.1 45.4
9/1/26 - 1215 42.3 31.1 49 24.4 35.5 SW | 232 25.4 40.3 SSW | 208 30.9 43.1 45.4
9/1/26 - 1200 42.0 30.6 49 24.3 35.3 SW | 229 27.2 40.3 SW | 216 30.9 42.5 45.4
9/1/26 - 1145 41.7 30.5 50 24.6 35.2 SW | 228 26.5 37.6 SW | 233 30.9 42.3 45.4
9/1/26 - 1130 41.4 30.0 53 25.4 35.3 SW | 229 24.4 40.0 SW | 234 30.9 41.8 45.4
9/1/26 - 1115 40.8 29.2 56 26.2 35.2 SW | 227 25.8 38.7 SW | 216 30.9 41.1 45.4
9/1/26 - 1100 40.7 29.6 56 26.3 35.2 SW | 227 22.8 35.0 SW | 221 30.9 41.1 45.4
9/1/26 - 1045 39.5 28.2 58 25.8 34.3 SW | 232 22.4 32.6 SW | 220 30.9 40.1 45.4
9/1/26 - 1030 39.3 27.7 61 27.0 34.6 SW | 230 24.0 33.9 SW | 216 30.9 39.6 45.4
9/1/26 - 1015 38.7 26.7 63 27.4 34.3 SW | 226 25.2 35.0 SW | 223 30.9 38.9 45.4
9/1/26 - 1000 38.0 25.9 66 27.6 34.0 SW | 224 25.2 33.4 SW | 223 30.9 38.4 45.4
9/1/26 - 0945 37.1 24.8 69 27.8 33.6 SW | 226 24.9 32.0 SW | 228 30.9 37.6 45.4
9/1/26 - 0930 36.8 24.3 71 28.3 33.5 SW | 226 24.5 33.5 SW | 227 30.9 37.0 45.4
9/1/26 - 0915 36.1 23.4 75 29.0 33.3 SW | 226 24.8 32.0 SW | 226 30.9 36.6 45.4
9/1/26 - 0900 35.4 22.5 79 29.7 33.1 SW | 226 24.7 31.6 SW | 223 30.9 36.0 45.4
9/1/26 - 0845 34.6 21.6 84 30.3 32.9 SW | 222 23.5 31.5 SW | 220 30.9 35.2 45.4
9/1/26 - 0830 33.8 20.5 88 30.7 32.6 SW | 226 24.4 31.5 SW | 222 30.9 35.2 45.4
9/1/26 - 0815 33.0 18.8 94 31.5 32.4 SW | 220 26.5 34.8 SSW | 213 30.9 35.2 45.4
9/1/26 - 0800 32.9 18.2 94 31.3 32.2 SW | 220 28.8 36.7 SW | 225 30.9 35.2 45.4
9/1/26 - 0745 32.5 17.2 96 31.4 32.0 SW | 223 30.8 40.3 SW | 228 30.9 35.2 45.4
9/1/26 - 0730 32.0 16.4 98 31.5 31.7 SW | 223 32.1 41.1 SW | 222 30.9 35.2 45.4
9/1/26 - 0715 31.6 15.7 98 31.1 31.3 SW | 225 33.1 41.7 SW | 224 30.9 35.2 45.4
9/1/26 - 0700 31.2 15.0 98 30.7 31.0 SW | 224 34.1 42.7 SW | 220 30.9 35.2 45.4
9/1/26 - 0645 31.1 14.8 98 30.6 30.8 SW | 224 34.3 42.9 SW | 226 30.9 35.2 45.4
9/1/26 - 0630 31.2 14.9 96 30.1 30.7 SW | 224 34.7 42.8 SW | 222 30.9 35.2 45.4
9/1/26 - 0615 31.6 15.2 94 30.0 30.9 SW | 223 35.2 45.4 SW | 222 31.4 35.2 45.4
9/1/26 - 0600 31.6 15.7 96 30.5 31.1 SW | 224 33.4 41.3 SW | 218 31.5 35.2 41.3
9/1/26 - 0545 31.7 16.2 96 30.8 31.2 SW | 226 31.9 38.8 SW | 228 31.5 35.2 40.1
Max 43.4 33.1 98 31.5 36.9 - 47.8 57.7 - 31.5 43.8 57.7
Avg 34.0 18.9 71 25.1 30.7 - 32.7 43.6 - - - -
Min 26.0 7.0 49 17.4 24.2 - 19.2 25.3 - 25.8 29.5 40.1